createdAt,value
2023-04-18T00:01:42.118Z,74.83
2023-04-18T00:04:09.227Z,74.80
2023-04-18T00:06:36.063Z,76.14
2023-04-18T00:09:02.895Z,76.30
2023-04-18T00:11:30.386Z,76.77
2023-04-18T00:13:59.924Z,75.93
2023-04-18T00:16:28.253Z,77.55
2023-04-18T00:18:55.489Z,76.35
2023-04-18T00:21:22.669Z,75.42
2023-04-18T00:23:49.333Z,77.62
2023-04-18T00:26:15.839Z,78.30
2023-04-18T00:28:46.802Z,78.01
2023-04-18T00:31:13.490Z,78.54
2023-04-18T00:33:40.114Z,77.30
2023-04-18T00:36:06.935Z,78.15
2023-04-18T00:38:33.929Z,79.56
2023-04-18T00:41:00.505Z,79.70
2023-04-18T00:43:27.232Z,80.16
2023-04-18T00:45:54.158Z,80.05
2023-04-18T00:48:21.511Z,79.85
2023-04-18T00:50:48.241Z,80.73
2023-04-18T00:53:15.547Z,81.29
2023-04-18T00:55:42.288Z,81.33
2023-04-18T00:58:09.277Z,80.93
2023-04-18T01:00:36.138Z,80.14
2023-04-18T01:03:03.116Z,79.62
2023-04-18T01:05:29.977Z,79.86
2023-04-18T01:08:08.809Z,79.06
2023-04-18T01:10:36.141Z,79.46
2023-04-18T01:13:16.258Z,79.60
2023-04-18T01:15:43.579Z,79.51
2023-04-18T01:18:10.908Z,79.61
2023-04-18T01:20:41.592Z,80.76
2023-04-18T01:23:10.879Z,78.98
2023-04-18T01:25:38.340Z,79.98
2023-04-18T01:28:06.194Z,79.22
2023-04-18T01:30:36.006Z,80.95
2023-04-18T01:33:03.805Z,79.83
2023-04-18T01:35:30.763Z,79.77
2023-04-18T01:37:57.618Z,79.46
2023-04-18T01:40:24.525Z,79.62
2023-04-18T01:42:51.378Z,79.34
2023-04-18T01:45:19.446Z,78.44
2023-04-18T01:47:46.493Z,78.32
2023-04-18T01:50:13.462Z,78.11
2023-04-18T01:52:42.479Z,77.68
2023-04-18T01:55:09.304Z,78.26
2023-04-18T01:57:36.806Z,78.61
2023-04-18T02:00:07.772Z,79.11
2023-04-18T02:02:43.489Z,79.23
2023-04-18T02:05:10.259Z,78.22
2023-04-18T02:07:39.847Z,77.98
2023-04-18T02:10:08.948Z,78.57
2023-04-18T02:12:35.459Z,78.34
2023-04-18T02:15:02.150Z,78.29
2023-04-18T02:17:31.171Z,79.10
2023-04-18T02:19:57.998Z,78.74
2023-04-18T02:22:24.591Z,77.95
2023-04-18T02:24:51.573Z,77.89
2023-04-18T02:27:18.166Z,78.96
2023-04-18T02:29:44.883Z,79.16
2023-04-18T02:32:11.473Z,79.29
2023-04-18T02:34:38.229Z,78.64
2023-04-18T02:37:04.880Z,79.38
2023-04-18T02:39:32.360Z,78.14
2023-04-18T02:41:59.044Z,78.91
2023-04-18T02:44:25.725Z,79.23
2023-04-18T02:46:52.416Z,79.01
2023-04-18T02:49:19.212Z,78.50
2023-04-18T02:51:45.889Z,78.42
2023-04-18T02:54:12.759Z,78.75
2023-04-18T02:57:08.832Z,78.01
2023-04-18T02:59:55.668Z,77.76
2023-04-18T03:02:43.172Z,78.38
2023-04-18T03:05:23.106Z,77.65
2023-04-18T03:07:51.158Z,78.40
2023-04-18T03:10:19.246Z,77.39
2023-04-18T03:12:47.739Z,79.77
2023-04-18T03:15:16.759Z,78.77
2023-04-18T03:17:43.688Z,79.78
2023-04-18T03:20:12.781Z,78.40
2023-04-18T03:22:40.046Z,77.48
2023-04-18T03:25:07.146Z,77.59
2023-04-18T03:27:43.695Z,77.36
2023-04-18T03:30:13.393Z,77.24
2023-04-18T03:32:42.273Z,76.34
2023-04-18T03:35:09.444Z,78.08
2023-04-18T03:37:36.213Z,77.00
2023-04-18T03:40:05.476Z,77.91
2023-04-18T03:42:32.104Z,78.31
2023-04-18T03:44:58.823Z,78.26
2023-04-18T03:47:25.997Z,77.46
2023-04-18T03:49:56.532Z,78.05
2023-04-18T03:52:25.073Z,78.57
2023-04-18T03:54:51.651Z,78.50
2023-04-18T03:57:23.166Z,78.20
2023-04-18T03:59:49.954Z,78.50
2023-04-18T04:02:16.612Z,77.56
2023-04-18T04:04:43.329Z,78.02
2023-04-18T04:07:12.454Z,77.32
2023-04-18T04:09:39.132Z,79.50
2023-04-18T04:12:06.555Z,77.36
2023-04-18T04:14:33.874Z,78.22
2023-04-18T04:17:00.474Z,78.50
2023-04-18T04:19:28.590Z,79.77
2023-04-18T04:22:06.772Z,78.07
2023-04-18T04:24:33.767Z,79.04
2023-04-18T04:27:01.247Z,78.62
2023-04-18T04:29:29.133Z,78.13
2023-04-18T04:31:59.209Z,78.97
2023-04-18T04:34:34.470Z,78.85
2023-04-18T04:37:05.257Z,77.92
2023-04-18T04:39:38.084Z,78.58
2023-04-18T04:42:28.570Z,77.79
2023-04-18T04:45:03.679Z,78.72
2023-04-18T04:47:30.439Z,78.40
2023-04-18T04:49:57.046Z,77.82
2023-04-18T04:52:23.696Z,78.75
2023-04-18T04:54:51.362Z,78.20
2023-04-18T04:57:20.875Z,78.12
2023-04-18T04:59:47.613Z,78.24
2023-04-18T05:02:14.373Z,78.07
2023-04-18T05:04:41.063Z,78.05
2023-04-18T05:07:07.702Z,76.85
2023-04-18T05:09:34.236Z,76.53
2023-04-18T05:12:01.921Z,77.49
2023-04-18T05:14:28.487Z,77.93
2023-04-18T05:16:55.567Z,76.79
2023-04-18T05:19:22.191Z,76.76
2023-04-18T05:21:48.779Z,76.86
2023-04-18T05:24:15.500Z,77.53
2023-04-18T05:26:43.076Z,77.55
2023-04-18T05:29:09.668Z,78.07
2023-04-18T05:31:36.417Z,76.46
2023-04-18T05:34:03.185Z,75.71
2023-04-18T05:36:29.749Z,76.95
2023-04-18T05:38:56.310Z,76.91
2023-04-18T05:41:23.079Z,76.96
2023-04-18T05:44:01.907Z,76.47
2023-04-18T05:46:31.786Z,76.78
2023-04-18T05:48:58.425Z,77.76
2023-04-18T05:51:24.990Z,75.89
2023-04-18T05:53:51.533Z,75.16
2023-04-18T05:56:18.105Z,75.40
2023-04-18T05:58:54.533Z,75.26
2023-04-18T06:01:21.561Z,75.37
2023-04-18T06:03:48.404Z,75.29
2023-04-18T06:06:16.189Z,74.03
2023-04-18T06:08:42.819Z,75.51
2023-04-18T06:11:09.506Z,75.62
2023-04-18T06:13:36.779Z,74.08
2023-04-18T06:16:03.614Z,74.71
2023-04-18T06:18:30.387Z,74.41
2023-04-18T06:20:57.010Z,74.56
2023-04-18T06:23:23.560Z,73.82
2023-04-18T06:25:52.557Z,74.98
2023-04-18T06:28:19.104Z,74.18
2023-04-18T06:30:45.697Z,75.27
2023-04-18T06:33:12.267Z,73.33
2023-04-18T06:35:38.884Z,72.79
2023-04-18T06:38:05.519Z,72.58
2023-04-18T06:40:32.162Z,73.12
2023-04-18T06:42:58.743Z,73.86
2023-04-18T06:45:25.423Z,73.17
2023-04-18T06:47:53.176Z,73.78
2023-04-18T06:50:19.844Z,73.83
2023-04-18T06:52:46.434Z,71.45
2023-04-18T06:55:13.618Z,72.20
2023-04-18T06:57:41.262Z,72.73
2023-04-18T07:00:08.707Z,72.93
2023-04-18T07:02:38.347Z,72.39
2023-04-18T07:05:05.780Z,71.34
2023-04-18T07:07:33.012Z,71.29
2023-04-18T07:10:00.515Z,71.50
2023-04-18T07:12:27.504Z,70.26
2023-04-18T07:14:55.087Z,69.71
2023-04-18T07:17:21.632Z,68.68
2023-04-18T07:19:48.300Z,69.30
2023-04-18T07:22:14.905Z,68.36
2023-04-18T07:24:41.537Z,69.00
2023-04-18T07:27:11.829Z,67.81
2023-04-18T07:29:38.534Z,67.98
2023-04-18T07:32:06.898Z,68.07
2023-04-18T07:34:36.902Z,67.82
2023-04-18T07:37:03.492Z,66.86
2023-04-18T07:39:32.374Z,67.66
2023-04-18T07:41:58.958Z,67.09
2023-04-18T07:44:25.620Z,66.19
2023-04-18T07:46:52.171Z,65.45
2023-04-18T07:49:18.857Z,65.70
2023-04-18T07:51:45.384Z,65.08
2023-04-18T07:54:12.041Z,65.65
2023-04-18T07:56:38.612Z,64.78
2023-04-18T07:59:05.410Z,64.58
2023-04-18T08:01:32.193Z,64.95
2023-04-18T08:04:01.973Z,64.60
2023-04-18T08:06:29.406Z,63.62
2023-04-18T08:08:55.978Z,64.20
2023-04-18T08:11:22.634Z,64.09
2023-04-18T08:13:49.233Z,63.49
2023-04-18T08:16:17.475Z,61.71
2023-04-18T08:18:44.289Z,62.28
2023-04-18T08:21:10.960Z,62.19
2023-04-18T08:23:37.555Z,61.66
2023-04-18T08:26:04.237Z,59.61
2023-04-18T08:28:30.821Z,59.68
2023-04-18T08:30:57.471Z,59.62
2023-04-18T08:33:24.571Z,59.52
2023-04-18T08:35:51.551Z,59.58
2023-04-18T08:38:18.742Z,59.84
2023-04-18T08:40:45.705Z,58.51
2023-04-18T08:43:16.792Z,58.44
2023-04-18T08:45:44.269Z,58.87
2023-04-18T08:48:14.862Z,59.41
2023-04-18T08:50:41.676Z,57.97
2023-04-18T08:53:08.346Z,59.22
2023-04-18T08:55:35.760Z,56.29
2023-04-18T08:58:03.065Z,55.86
2023-04-18T09:00:30.517Z,55.35
2023-04-18T09:02:57.612Z,56.55
2023-04-18T09:05:25.535Z,56.60
2023-04-18T09:07:53.119Z,57.65
2023-04-18T09:10:29.006Z,56.56
2023-04-18T09:12:57.510Z,55.59
2023-04-18T09:15:27.134Z,57.13
2023-04-18T09:17:54.470Z,58.41
2023-04-18T09:20:31.114Z,57.46
2023-04-18T09:23:00.898Z,59.43
2023-04-18T09:25:35.877Z,59.32
2023-04-18T09:28:03.349Z,58.18
2023-04-18T09:30:36.996Z,56.82
2023-04-18T09:33:04.967Z,57.52
2023-04-18T09:35:31.723Z,55.87
2023-04-18T09:37:58.364Z,55.21
2023-04-18T09:40:25.052Z,56.56
2023-04-18T09:42:55.638Z,56.72
2023-04-18T09:45:23.008Z,55.07
2023-04-18T09:47:49.698Z,55.90
2023-04-18T09:50:18.178Z,56.50
2023-04-18T09:52:45.556Z,56.50
2023-04-18T09:55:16.572Z,57.14
2023-04-18T09:57:46.966Z,56.83
2023-04-18T10:00:24.514Z,56.29
2023-04-18T10:02:52.840Z,57.00
2023-04-18T10:05:21.337Z,57.47
2023-04-18T10:07:49.145Z,57.39
2023-04-18T10:10:15.943Z,57.02
2023-04-18T10:12:42.650Z,56.90
2023-04-18T10:15:09.907Z,55.84
2023-04-18T10:18:04.321Z,55.78
2023-04-18T10:20:33.352Z,55.18
2023-04-18T10:23:00.581Z,53.95
2023-04-18T10:25:39.280Z,52.50
2023-04-18T10:28:27.559Z,54.61
2023-04-18T10:30:56.292Z,55.23
2023-04-18T10:33:31.072Z,55.79
2023-04-18T10:36:12.664Z,55.39
2023-04-18T10:39:05.832Z,54.88
2023-04-18T10:41:33.334Z,54.86
2023-04-18T10:44:08.052Z,54.65
2023-04-18T10:46:38.792Z,54.41
2023-04-18T10:49:17.643Z,54.80
2023-04-18T10:51:45.245Z,54.90
2023-04-18T10:54:13.714Z,54.23
2023-04-18T10:56:40.625Z,52.83
2023-04-18T10:59:09.540Z,53.22
2023-04-18T11:01:37.232Z,52.06
2023-04-18T11:04:11.502Z,50.34
2023-04-18T11:06:48.949Z,48.05
2023-04-18T11:09:15.971Z,47.64
2023-04-18T11:11:43.481Z,48.81
2023-04-18T11:14:13.232Z,48.11
2023-04-18T11:16:40.142Z,51.46
2023-04-18T11:19:23.661Z,50.28
2023-04-18T11:21:51.356Z,51.65
2023-04-18T11:24:22.071Z,50.15
2023-04-18T11:26:48.717Z,51.71
2023-04-18T11:29:17.439Z,51.90
2023-04-18T11:31:51.194Z,53.59
2023-04-18T11:34:17.941Z,52.75
2023-04-18T11:36:47.961Z,51.43
2023-04-18T11:39:14.586Z,52.38
2023-04-18T11:41:41.813Z,53.97
2023-04-18T11:44:08.445Z,53.31
2023-04-18T11:46:39.689Z,52.26
2023-04-18T11:49:06.293Z,51.22
2023-04-18T11:51:34.637Z,49.40
2023-04-18T11:54:01.498Z,50.82
2023-04-18T11:56:28.135Z,50.42
2023-04-18T11:58:54.727Z,50.89
2023-04-18T12:01:21.237Z,50.00
2023-04-18T12:04:20.603Z,50.19
2023-04-18T12:06:49.945Z,50.07
2023-04-18T12:09:17.311Z,49.21
2023-04-18T12:11:43.940Z,49.34
2023-04-18T12:14:21.534Z,49.61
2023-04-18T12:16:53.620Z,50.25
2023-04-18T12:19:25.765Z,50.88
2023-04-18T12:21:56.856Z,51.00
2023-04-18T12:24:27.439Z,50.52
2023-04-18T12:26:55.209Z,52.59
2023-04-18T12:29:21.758Z,53.14
2023-04-18T12:31:48.443Z,50.94
2023-04-18T12:34:15.223Z,48.48
2023-04-18T12:36:42.455Z,47.73
2023-04-18T12:39:09.746Z,47.33
2023-04-18T12:41:36.401Z,48.29
2023-04-18T12:44:05.801Z,49.59
2023-04-18T12:46:32.527Z,48.74
2023-04-18T12:48:59.170Z,50.12
2023-04-18T12:51:26.669Z,50.88
2023-04-18T12:53:53.556Z,50.72
2023-04-18T12:56:22.079Z,51.43
2023-04-18T12:58:49.135Z,52.19
2023-04-18T13:01:16.524Z,53.78
2023-04-18T13:03:43.264Z,54.05
2023-04-18T13:06:09.960Z,50.25
2023-04-18T13:08:37.537Z,51.14
2023-04-18T13:11:04.225Z,51.06
2023-04-18T13:13:30.785Z,48.32
2023-04-18T13:15:57.368Z,47.39
2023-04-18T13:18:23.939Z,45.82
2023-04-18T13:20:50.608Z,47.13
2023-04-18T13:23:17.549Z,49.11
2023-04-18T13:25:44.153Z,49.53
2023-04-18T13:28:10.808Z,50.77
2023-04-18T13:30:37.502Z,52.70
2023-04-18T13:33:04.178Z,54.48
2023-04-18T13:35:30.924Z,56.08
2023-04-18T13:37:57.444Z,55.87
2023-04-18T13:40:25.579Z,56.37
2023-04-18T13:42:52.146Z,56.45
2023-04-18T13:45:18.816Z,55.81
2023-04-18T13:47:45.434Z,56.22
2023-04-18T13:50:12.292Z,52.28
2023-04-18T13:52:38.830Z,50.04
2023-04-18T13:55:05.690Z,50.14
2023-04-18T13:57:33.354Z,52.46
2023-04-18T13:59:59.989Z,53.56
2023-04-18T14:02:26.753Z,54.28
2023-04-18T14:04:54.944Z,52.35
2023-04-18T14:07:21.694Z,52.96
2023-04-18T14:09:48.287Z,54.78
2023-04-18T14:12:17.102Z,54.85
2023-04-18T14:14:43.692Z,54.61
2023-04-18T14:17:10.342Z,55.65
2023-04-18T14:19:36.919Z,55.59
2023-04-18T14:22:03.421Z,56.07
2023-04-18T14:24:30.037Z,56.40
2023-04-18T14:26:56.685Z,57.57
2023-04-18T14:29:23.297Z,57.03
2023-04-18T14:31:50.513Z,57.78
2023-04-18T14:34:17.134Z,58.71
2023-04-18T14:36:43.676Z,58.62
2023-04-18T14:39:11.066Z,58.28
2023-04-18T14:41:38.069Z,58.40
2023-04-18T14:44:04.795Z,59.97
2023-04-18T14:46:31.492Z,58.78
2023-04-18T14:48:58.256Z,59.30
2023-04-18T14:51:24.811Z,59.17
2023-04-18T14:53:51.694Z,59.30
2023-04-18T14:56:21.124Z,59.38
2023-04-18T14:58:48.186Z,59.32
2023-04-18T15:01:16.952Z,59.61
2023-04-18T15:03:43.667Z,60.05
2023-04-18T15:06:11.095Z,60.75
2023-04-18T15:08:41.188Z,60.60
2023-04-18T15:11:08.223Z,61.22
2023-04-18T15:13:34.969Z,60.68
2023-04-18T15:16:01.851Z,59.28
2023-04-18T15:18:28.944Z,59.38
2023-04-18T15:20:57.045Z,59.43
2023-04-18T15:23:23.710Z,60.24
2023-04-18T15:25:50.474Z,59.88
2023-04-18T15:28:18.660Z,59.22
2023-04-18T15:30:45.851Z,60.08
2023-04-18T15:33:13.310Z,60.48
2023-04-18T15:35:43.013Z,60.58
2023-04-18T15:38:09.648Z,59.90
2023-04-18T15:40:36.637Z,60.10
2023-04-18T15:43:04.050Z,60.72
2023-04-18T15:45:30.618Z,60.13
2023-04-18T15:47:57.347Z,60.03
2023-04-18T15:50:24.004Z,59.88
2023-04-18T15:52:53.327Z,59.48
2023-04-18T15:55:19.936Z,59.15
2023-04-18T15:57:46.966Z,58.26
2023-04-18T16:00:16.542Z,59.16
2023-04-18T16:02:44.115Z,59.20
2023-04-18T16:05:12.312Z,59.30
2023-04-18T16:07:42.558Z,60.17
2023-04-18T16:10:10.514Z,59.33
2023-04-18T16:12:37.800Z,59.40
2023-04-18T16:15:10.792Z,59.17
2023-04-18T16:17:37.700Z,59.95
2023-04-18T16:20:06.160Z,58.79
2023-04-18T16:22:32.938Z,59.54
2023-04-18T16:24:59.470Z,59.97
2023-04-18T16:27:33.384Z,59.63
2023-04-18T16:30:07.765Z,59.71
2023-04-18T16:32:34.391Z,60.08
2023-04-18T16:35:01.048Z,60.23
2023-04-18T16:37:27.668Z,60.46
2023-04-18T16:39:54.168Z,59.89
2023-04-18T16:42:21.927Z,60.35
2023-04-18T16:44:48.457Z,60.89
2023-04-18T16:47:15.087Z,60.43
2023-04-18T16:49:41.896Z,60.66
2023-04-18T16:52:08.488Z,60.57
2023-04-18T16:54:35.307Z,60.88
2023-04-18T16:57:02.863Z,61.03
2023-04-18T16:59:29.416Z,60.74
2023-04-18T17:01:56.095Z,60.83
2023-04-18T17:04:23.446Z,60.63
2023-04-18T17:06:51.865Z,61.06
2023-04-18T17:09:29.265Z,61.03
2023-04-18T17:11:57.962Z,60.87
2023-04-18T17:14:24.554Z,60.16
2023-04-18T17:16:53.307Z,60.20
2023-04-18T17:19:20.384Z,60.34
2023-04-18T17:21:47.176Z,59.89
2023-04-18T17:24:14.381Z,59.96
2023-04-18T17:26:46.372Z,59.90
2023-04-18T17:29:15.254Z,60.09
2023-04-18T17:31:42.134Z,60.42
2023-04-18T17:34:08.801Z,60.44
2023-04-18T17:36:35.389Z,61.48
2023-04-18T17:39:08.285Z,61.27
2023-04-18T17:44:17.293Z,59.64
2023-04-18T17:46:43.822Z,59.51
2023-04-18T17:49:11.424Z,58.95
2023-04-18T17:51:44.093Z,59.43
2023-04-18T17:54:13.096Z,58.72
2023-04-18T17:56:42.212Z,58.77
2023-04-18T17:59:09.897Z,58.49
2023-04-18T18:01:36.557Z,58.77
2023-04-18T18:04:03.285Z,57.37
2023-04-18T18:06:29.978Z,57.47
2023-04-18T18:08:59.654Z,57.18
2023-04-18T18:11:29.993Z,57.30
2023-04-18T18:13:57.529Z,56.91
2023-04-18T18:16:24.361Z,57.16
2023-04-18T18:18:51.140Z,57.50
2023-04-18T18:21:18.070Z,56.64
2023-04-18T18:23:44.752Z,57.32
2023-04-18T18:26:11.887Z,56.75
2023-04-18T18:28:38.549Z,56.13
2023-04-18T18:31:05.125Z,56.49
2023-04-18T18:33:31.710Z,56.43
2023-04-18T18:36:00.625Z,56.60
2023-04-18T18:38:27.280Z,55.72
2023-04-18T18:40:53.805Z,56.08
2023-04-18T18:43:20.469Z,56.78
2023-04-18T18:45:47.141Z,56.28
2023-04-18T18:48:14.736Z,56.27
2023-04-18T18:50:41.971Z,56.10
2023-04-18T18:53:08.591Z,56.79
2023-04-18T18:55:35.106Z,56.49
2023-04-18T18:58:04.875Z,57.43
2023-04-18T19:00:31.473Z,56.13
2023-04-18T19:02:58.130Z,56.29
2023-04-18T19:05:25.767Z,56.64
2023-04-18T19:07:53.631Z,56.78
2023-04-18T19:10:20.178Z,57.28
2023-04-18T19:12:46.819Z,57.40
2023-04-18T19:15:13.371Z,56.85
2023-04-18T19:17:41.597Z,56.88
2023-04-18T19:20:09.085Z,57.61
2023-04-18T19:22:35.725Z,57.81
2023-04-18T19:25:02.981Z,57.13
2023-04-18T19:27:29.700Z,57.25
2023-04-18T19:29:56.296Z,57.93
2023-04-18T19:32:22.897Z,57.66
2023-04-18T19:34:58.300Z,58.40
2023-04-18T19:37:24.899Z,58.45
2023-04-18T19:39:54.096Z,58.02
2023-04-18T19:42:20.849Z,57.69
2023-04-18T19:44:47.542Z,57.88
2023-04-18T19:47:23.469Z,58.29
2023-04-18T19:49:50.062Z,58.91
2023-04-18T19:52:18.432Z,58.62
2023-04-18T19:54:45.091Z,59.48
2023-04-18T19:57:13.832Z,58.99
2023-04-18T19:59:40.431Z,58.52
2023-04-18T20:02:07.079Z,57.93
2023-04-18T20:04:34.284Z,58.47
2023-04-18T20:07:01.299Z,59.28
2023-04-18T20:09:27.973Z,59.13
2023-04-18T20:11:54.540Z,59.35
2023-04-18T20:14:21.232Z,58.45
2023-04-18T20:16:49.698Z,57.97
2023-04-18T20:19:17.888Z,57.76
2023-04-18T20:21:44.593Z,58.67
2023-04-18T20:24:11.214Z,57.75
2023-04-18T20:26:37.727Z,57.78
2023-04-18T20:29:04.349Z,57.33
2023-04-18T20:31:30.922Z,57.47
2023-04-18T20:33:57.536Z,57.47
2023-04-18T20:36:25.564Z,58.09
2023-04-18T20:38:52.162Z,57.12
2023-04-18T20:41:18.904Z,57.94
2023-04-18T20:43:46.949Z,56.92
2023-04-18T20:46:14.085Z,57.10
2023-04-18T20:48:40.802Z,56.49
2023-04-18T20:51:07.400Z,56.89
2023-04-18T20:53:34.057Z,56.29
2023-04-18T20:56:01.190Z,56.55
2023-04-18T20:58:27.727Z,56.64
2023-04-18T21:00:57.115Z,56.43
2023-04-18T21:03:23.898Z,56.58
2023-04-18T21:05:50.510Z,55.85
2023-04-18T21:08:17.188Z,55.50
2023-04-18T21:10:44.513Z,54.69
2023-04-18T21:13:12.652Z,53.91
2023-04-18T21:15:40.761Z,53.45
2023-04-18T21:18:07.412Z,53.35
2023-04-18T21:20:36.382Z,52.57
2023-04-18T21:23:03.254Z,52.29
2023-04-18T21:25:32.868Z,52.23
2023-04-18T21:28:00.166Z,51.05
2023-04-18T21:30:26.728Z,51.07
2023-04-18T21:32:53.554Z,51.23
2023-04-18T21:35:24.648Z,51.40
2023-04-18T21:37:58.005Z,51.29
2023-04-18T21:40:29.130Z,50.84
2023-04-18T21:42:57.570Z,51.37
2023-04-18T21:45:24.242Z,50.76
2023-04-18T21:47:51.093Z,50.98
2023-04-18T21:50:17.765Z,50.79
2023-04-18T21:52:44.335Z,50.93
2023-04-18T21:55:10.947Z,51.35
2023-04-18T21:57:37.536Z,51.52
2023-04-18T22:00:07.716Z,51.88
2023-04-18T22:02:35.986Z,52.35
2023-04-18T22:05:02.999Z,52.25
2023-04-18T22:07:29.690Z,52.17
2023-04-18T22:09:58.525Z,52.52
2023-04-18T22:12:26.482Z,52.65
2023-04-18T22:14:53.177Z,50.49
2023-04-18T22:17:21.976Z,50.49
2023-04-18T22:19:55.730Z,50.09
2023-04-18T22:22:22.378Z,50.60
2023-04-18T22:24:49.005Z,50.35
2023-04-18T22:27:15.634Z,49.97
2023-04-18T22:29:44.466Z,49.31
2023-04-18T22:32:11.045Z,48.94
2023-04-18T22:34:37.589Z,49.57
2023-04-18T22:37:04.232Z,48.33
2023-04-18T22:39:31.223Z,47.65
2023-04-18T22:41:57.802Z,46.84
2023-04-18T22:44:24.324Z,46.70
2023-04-18T22:46:54.483Z,47.36
2023-04-18T22:49:22.256Z,47.27
2023-04-18T22:51:49.600Z,46.47
2023-04-18T22:54:16.407Z,46.71
2023-04-18T22:56:43.170Z,45.18
2023-04-18T22:59:09.740Z,44.73
2023-04-18T23:01:36.297Z,44.65
2023-04-18T23:04:03.178Z,44.32
2023-04-18T23:06:29.978Z,44.77
2023-04-18T23:08:56.593Z,45.58
2023-04-18T23:11:23.196Z,45.18
2023-04-18T23:13:49.858Z,45.52
2023-04-18T23:16:18.889Z,46.05
2023-04-18T23:18:45.649Z,45.97
2023-04-18T23:21:15.611Z,47.10
2023-04-18T23:23:42.190Z,47.23
2023-04-18T23:26:15.424Z,47.04
2023-04-18T23:28:42.427Z,47.41
2023-04-18T23:31:09.302Z,47.31
2023-04-18T23:33:36.569Z,48.73
2023-04-18T23:36:03.393Z,48.79
2023-04-18T23:38:30.710Z,49.59
2023-04-18T23:40:57.284Z,49.41
2023-04-18T23:43:26.942Z,49.78
2023-04-18T23:45:53.546Z,50.13
2023-04-18T23:48:20.247Z,50.54
2023-04-18T23:50:50.318Z,50.17
2023-04-18T23:53:19.929Z,51.01
2023-04-18T23:55:48.017Z,50.98
2023-04-18T23:58:16.099Z,51.54
